Time;durP1;ratioP1;P1;durP2;ratioP2;P2;SDS_P1;SDS_P2;PMS_P1;PMS_P2;Temp;Humidity;BMP_temperature;BMP_pressure;BME280_temperature;BME280_humidity;BME280_pressure;Samples;Min_cycle;Max_cycle;Signal;HPM_P1;HPM_P2
2021/06/30 00:00:51;;;;;;;38.80;23.10;;;;;;;29.05;nan;100360.84;5055369;28;20554;-47
2021/06/30 00:03:25;;;;;;;34.43;23.73;;;;;;;29.48;nan;100357.31;5054185;28;20514;-44
2021/06/30 00:05:57;;;;;;;43.53;25.10;;;;;;;29.90;nan;100364.25;5055160;28;20954;-45
2021/06/30 00:08:30;;;;;;;37.23;23.90;;;;;;;29.36;nan;100353.34;5054147;28;20572;-43
2021/06/30 00:11:03;;;;;;;35.97;23.70;;;;;;;29.36;nan;100342.72;5055266;28;20853;-45
2021/06/30 00:13:36;;;;;;;40.17;25.47;;;;;;;29.23;nan;100348.56;5054061;28;20779;-46
2021/06/30 00:16:09;;;;;;;36.20;23.97;;;;;;;29.29;nan;100357.22;5055241;28;20555;-44
2021/06/30 00:18:43;;;;;;;41.57;23.00;;;;;;;29.42;nan;100357.56;5054821;28;20911;-44
2021/06/30 00:21:16;;;;;;;44.23;26.57;;;;;;;29.75;nan;100349.03;5053744;28;20447;-44
2021/06/30 00:23:48;;;;;;;41.40;25.97;;;;;;;30.01;nan;100346.97;5054922;28;20552;-43
2021/06/30 00:26:21;;;;;;;41.93;26.10;;;;;;;29.62;nan;100349.59;5053664;28;20895;-46
2021/06/30 00:28:54;;;;;;;39.20;23.00;;;;;;;29.74;nan;100344.66;5054846;28;20506;-44
2021/06/30 00:31:26;;;;;;;32.17;21.93;;;;;;;29.61;nan;100344.31;5053902;28;20573;-46
2021/06/30 00:34:02;;;;;;;38.10;23.30;;;;;;;28.98;nan;100336.34;5055003;28;20802;-45
2021/06/30 00:36:36;;;;;;;57.43;29.30;;;;;;;28.81;nan;100339.69;5053692;28;20497;-46
2021/06/30 00:39:09;;;;;;;41.37;27.87;;;;;;;28.77;nan;100339.88;5055022;28;20534;-47
2021/06/30 00:41:42;;;;;;;42.67;27.07;;;;;;;28.96;nan;100340.00;5053809;28;20575;-42
2021/06/30 00:44:14;;;;;;;50.17;25.60;;;;;;;28.97;nan;100331.97;5054902;28;20539;-44
2021/06/30 00:46:47;;;;;;;57.37;27.53;;;;;;;28.98;nan;100331.03;5053213;28;20472;-43
2021/06/30 00:49:20;;;;;;;40.00;25.10;;;;;;;29.03;nan;100322.91;5057410;28;20905;-44
2021/06/30 00:51:53;;;;;;;52.73;26.90;;;;;;;28.79;nan;100322.09;5057767;28;20499;-44
2021/06/30 00:54:26;;;;;;;45.50;26.70;;;;;;;28.83;nan;100315.75;5059111;28;20800;-45
2021/06/30 00:56:59;;;;;;;44.53;25.27;;;;;;;28.43;nan;100313.81;5057256;28;20482;-44
2021/06/30 00:59:32;;;;;;;38.10;24.70;;;;;;;28.19;nan;100312.09;5059008;28;20474;-48
2021/06/30 01:02:04;;;;;;;43.17;25.90;;;;;;;28.75;nan;100317.84;5057776;28;20473;-45
2021/06/30 01:04:38;;;;;;;41.43;25.80;;;;;;;28.61;nan;100313.09;5058895;28;20810;-44
2021/06/30 01:07:11;;;;;;;41.43;25.47;;;;;;;28.49;nan;100309.19;5057006;28;20516;-44
2021/06/30 01:09:43;;;;;;;40.00;26.30;;;;;;;28.28;nan;100306.44;5058560;28;20578;-44
2021/06/30 01:12:16;;;;;;;34.70;23.80;;;;;;;28.33;nan;100306.25;5057634;28;20473;-44
2021/06/30 01:14:48;;;;;;;37.90;24.30;;;;;;;28.25;nan;100310.06;5058457;28;20457;-43
2021/06/30 01:17:21;;;;;;;72.07;44.87;;;;;;;28.47;nan;100306.59;5056678;28;21122;-43
2021/06/30 01:19:55;;;;;;;103.60;60.43;;;;;;;28.54;nan;100305.41;5058458;28;20773;-43
2021/06/30 01:22:27;;;;;;;56.67;38.10;;;;;;;28.21;nan;100311.09;5057254;28;20473;-45
2021/06/30 01:25:02;;;;;;;68.27;42.93;;;;;;;28.29;nan;100308.16;5058775;28;20775;-45
2021/06/30 01:27:35;;;;;;;64.90;36.93;;;;;;;28.46;nan;100303.97;5057224;28;20875;-46
2021/06/30 01:30:08;;;;;;;71.90;45.57;;;;;;;28.36;nan;100303.50;5058315;28;20486;-44
2021/06/30 01:32:41;;;;;;;63.73;32.50;;;;;;;28.34;nan;100310.66;5056959;28;20519;-42
2021/06/30 01:35:20;;;;;;;65.87;25.07;;;;;;;28.50;nan;100311.75;5058351;28;20502;-46
2021/06/30 01:37:52;;;;;;;52.00;31.40;;;;;;;28.39;nan;100304.22;5057088;28;20512;-45
2021/06/30 01:40:26;;;;;;;76.73;33.73;;;;;;;28.51;nan;100307.31;5058172;28;20556;-43
2021/06/30 01:42:59;;;;;;;226.87;34.93;;;;;;;28.55;nan;100312.44;5056689;28;20990;-43
2021/06/30 01:45:32;;;;;;;67.73;27.20;;;;;;;28.29;nan;100313.47;5057722;28;20547;-46
2021/06/30 01:48:05;;;;;;;43.93;23.03;;;;;;;27.86;nan;100306.25;5056943;28;20569;-46
2021/06/30 01:50:38;;;;;;;48.83;25.53;;;;;;;28.19;nan;100314.75;5057979;28;20489;-45
2021/06/30 01:53:10;;;;;;;72.07;30.17;;;;;;;28.38;nan;100318.41;5056618;28;20564;-46
2021/06/30 01:55:44;;;;;;;44.43;26.43;;;;;;;28.24;nan;100315.47;5057825;28;20544;-46
2021/06/30 01:58:24;;;;;;;39.90;26.80;;;;;;;28.10;nan;100310.66;5056553;28;20512;-47
2021/06/30 02:00:56;;;;;;;37.40;22.70;;;;;;;28.43;nan;100318.22;5056023;28;20486;-44
2021/06/30 02:03:29;;;;;;;44.67;24.90;;;;;;;28.54;nan;100315.13;5056340;28;20937;-46
2021/06/30 02:06:01;;;;;;;40.27;24.77;;;;;;;28.97;nan;100323.16;5057412;28;20500;-44
2021/06/30 02:08:34;;;;;;;50.40;31.23;;;;;;;28.94;nan;100321.50;5055132;28;20547;-44
2021/06/30 02:11:08;;;;;;;37.13;24.40;;;;;;;28.57;nan;100325.63;5057502;28;20575;-45
2021/06/30 02:13:40;;;;;;;34.80;25.03;;;;;;;28.51;nan;100323.25;5056957;28;20550;-45
2021/06/30 02:16:13;;;;;;;53.20;25.93;;;;;;;28.60;nan;100322.84;5057308;28;20457;-48
2021/06/30 02:18:45;;;;;;;87.70;24.30;;;;;;;28.33;nan;100328.34;5057102;28;20493;-44
2021/06/30 02:21:18;;;;;;;69.03;26.07;;;;;;;28.21;nan;100334.09;5055898;28;20482;-44
2021/06/30 02:23:51;;;;;;;234.80;34.20;;;;;;;28.06;nan;100336.44;5057223;28;20519;-44
2021/06/30 02:26:24;;;;;;;43.73;27.10;;;;;;;28.41;nan;100328.91;5056010;28;20459;-44
2021/06/30 02:28:57;;;;;;;61.93;30.90;;;;;;;28.32;nan;100331.06;5056717;28;20820;-46
2021/06/30 02:31:30;;;;;;;83.27;26.97;;;;;;;28.52;nan;100335.56;5055891;28;20483;-47
2021/06/30 02:34:02;;;;;;;57.37;26.67;;;;;;;28.82;nan;100328.13;5057127;28;20548;-44
2021/06/30 02:36:35;;;;;;;46.93;27.00;;;;;;;28.48;nan;100339.25;5055427;28;20539;-43
2021/06/30 02:39:07;;;;;;;92.87;29.40;;;;;;;28.75;nan;100326.66;5057215;28;20506;-43
2021/06/30 02:41:41;;;;;;;83.17;28.60;;;;;;;28.66;nan;100327.91;5055651;28;20564;-43
2021/06/30 02:44:14;;;;;;;68.43;28.80;;;;;;;28.81;nan;100325.56;5057168;28;20829;-44
2021/06/30 02:46:46;;;;;;;53.47;29.03;;;;;;;28.86;nan;100328.91;5055537;28;20565;-43
2021/06/30 02:49:19;;;;;;;59.67;28.90;;;;;;;28.88;nan;100321.75;5056918;28;20561;-46
2021/06/30 02:51:51;;;;;;;46.83;28.30;;;;;;;28.79;nan;100309.69;5055223;28;20513;-44
2021/06/30 02:54:24;;;;;;;162.57;34.07;;;;;;;28.92;nan;100307.41;5056832;28;20482;-43
2021/06/30 02:56:57;;;;;;;85.13;31.97;;;;;;;28.98;nan;100309.78;5055020;28;20476;-47
2021/06/30 02:59:30;;;;;;;67.27;33.10;;;;;;;28.95;nan;100311.72;5056794;28;20561;-43
2021/06/30 03:02:03;;;;;;;129.93;30.87;;;;;;;28.57;nan;100307.91;5055879;28;20574;-43
2021/06/30 03:04:35;;;;;;;124.73;37.60;;;;;;;28.27;nan;100307.38;5056499;28;20482;-46
2021/06/30 03:07:08;;;;;;;64.33;29.70;;;;;;;28.74;nan;100305.50;5054511;28;20565;-45
2021/06/30 03:09:40;;;;;;;79.20;32.97;;;;;;;28.73;nan;100306.41;5056415;28;20497;-45
2021/06/30 03:12:14;;;;;;;126.90;34.20;;;;;;;28.70;nan;100304.75;5054309;28;20581;-46
2021/06/30 03:14:47;;;;;;;246.60;41.70;;;;;;;28.79;nan;100296.44;5056431;28;20565;-43
2021/06/30 03:17:19;;;;;;;101.63;36.50;;;;;;;28.88;nan;100287.25;5054480;28;20486;-44
2021/06/30 03:19:52;;;;;;;60.60;33.43;;;;;;;28.99;nan;100297.41;5056191;28;20540;-43
2021/06/30 03:22:24;;;;;;;92.47;38.10;;;;;;;28.88;nan;100300.53;5055014;28;20510;-45
2021/06/30 03:24:57;;;;;;;110.43;39.23;;;;;;;28.59;nan;100299.06;5056325;28;20479;-44
2021/06/30 03:27:31;;;;;;;99.63;38.47;;;;;;;28.53;nan;100308.09;5054246;28;20560;-44
2021/06/30 03:30:05;;;;;;;127.00;41.60;;;;;;;28.87;nan;100306.75;5055924;28;20528;-44
2021/06/30 03:32:37;;;;;;;99.70;40.13;;;;;;;29.10;nan;100307.56;5054654;28;20703;-46
2021/06/30 03:35:10;;;;;;;93.73;37.27;;;;;;;28.56;nan;100315.97;5056002;28;20524;-43
2021/06/30 03:37:43;;;;;;;96.17;38.87;;;;;;;28.74;nan;100310.78;5054292;28;20513;-43
2021/06/30 03:40:16;;;;;;;90.50;36.93;;;;;;;28.57;nan;100312.38;5055759;28;21012;-45
2021/06/30 03:42:50;;;;;;;96.20;37.17;;;;;;;28.81;nan;100312.28;5054444;28;20565;-42
2021/06/30 03:45:22;;;;;;;99.10;39.53;;;;;;;28.40;nan;100311.25;5055691;28;20546;-44
2021/06/30 03:47:55;;;;;;;100.43;40.37;;;;;;;28.79;nan;100320.31;5054303;28;20965;-45
2021/06/30 03:50:27;;;;;;;106.87;41.23;;;;;;;29.18;nan;100310.75;5055728;28;20849;-46
2021/06/30 03:53:00;;;;;;;101.40;39.97;;;;;;;29.13;nan;100312.75;5054373;28;20492;-44
2021/06/30 03:55:32;;;;;;;110.97;40.70;;;;;;;28.98;nan;100317.75;5055286;28;20498;-43
2021/06/30 03:58:06;;;;;;;109.17;41.07;;;;;;;28.86;nan;100317.44;5054240;28;20491;-45
2021/06/30 04:00:39;;;;;;;97.63;39.40;;;;;;;28.50;nan;100318.88;5055576;28;20502;-43
2021/06/30 04:03:11;;;;;;;102.93;40.70;;;;;;;28.93;nan;100309.16;5054400;28;20514;-44
2021/06/30 04:05:44;;;;;;;97.97;38.37;;;;;;;29.05;nan;100322.81;5055073;28;20494;-45
2021/06/30 04:08:17;;;;;;;94.13;40.53;;;;;;;29.29;nan;100334.19;5054104;28;20956;-44
2021/06/30 04:10:49;;;;;;;106.13;39.47;;;;;;;29.18;nan;100323.16;5055499;28;20500;-44
2021/06/30 04:13:23;;;;;;;105.23;41.63;;;;;;;29.31;nan;100323.47;5053807;28;20963;-44
2021/06/30 04:15:56;;;;;;;107.73;41.27;;;;;;;29.40;nan;100330.16;5055097;28;20843;-46
2021/06/30 04:18:28;;;;;;;105.23;43.37;;;;;;;29.27;nan;100329.88;5053900;28;20507;-45
2021/06/30 04:21:01;;;;;;;114.40;43.80;;;;;;;29.34;nan;100323.34;5054951;28;20966;-43
2021/06/30 04:23:34;;;;;;;90.83;40.50;;;;;;;29.12;nan;100321.66;5053561;28;20481;-45
2021/06/30 04:26:07;;;;;;;124.50;42.43;;;;;;;29.40;nan;100328.41;5055081;28;20450;-45
2021/06/30 04:28:40;;;;;;;115.27;43.27;;;;;;;29.65;nan;100316.69;5053671;28;20995;-45
2021/06/30 04:31:13;;;;;;;96.73;41.00;;;;;;;29.65;nan;100316.69;5055374;28;20848;-44
2021/06/30 04:33:45;;;;;;;102.20;43.80;;;;;;;29.33;nan;100316.31;5054786;28;20566;-44
2021/06/30 04:36:18;;;;;;;92.57;42.17;;;;;;;29.56;nan;100307.34;5053728;28;20500;-46
2021/06/30 04:38:50;;;;;;;104.63;42.70;;;;;;;29.42;nan;100297.31;5054800;28;20843;-43
2021/06/30 04:41:23;;;;;;;91.87;44.60;;;;;;;29.10;nan;100304.91;5054131;28;20572;-43
2021/06/30 04:43:57;;;;;;;87.93;44.03;;;;;;;29.27;nan;100305.97;5054994;28;20833;-46
2021/06/30 04:46:29;;;;;;;97.47;45.37;;;;;;;29.13;nan;100304.78;5053569;28;20809;-46
2021/06/30 04:49:02;;;;;;;100.73;46.50;;;;;;;29.50;nan;100310.28;5054981;28;20542;-45
2021/06/30 04:51:34;;;;;;;93.97;45.00;;;;;;;29.48;nan;100312.16;5053381;28;20479;-45
2021/06/30 04:54:07;;;;;;;101.60;47.67;;;;;;;29.58;nan;100307.28;5054914;28;20550;-45
2021/06/30 04:56:42;;;;;;;90.83;45.27;;;;;;;29.66;nan;100302.47;5053277;28;20495;-44
2021/06/30 04:59:17;;;;;;;107.70;47.77;;;;;;;29.16;nan;100309.94;5054834;28;20558;-47
2021/06/30 05:01:50;;;;;;;90.67;43.77;;;;;;;29.26;nan;100309.56;5053418;28;20959;-45
2021/06/30 05:04:22;;;;;;;111.70;46.70;;;;;;;29.28;nan;100308.56;5055063;28;20483;-45
2021/06/30 05:06:55;;;;;;;101.17;46.70;;;;;;;29.44;nan;100314.06;5053466;28;20876;-44
2021/06/30 05:09:27;;;;;;;89.20;45.20;;;;;;;29.48;nan;100310.34;5054744;28;20484;-45
2021/06/30 05:12:00;;;;;;;87.10;44.43;;;;;;;29.66;nan;100318.41;5053027;28;20479;-43
2021/06/30 05:14:34;;;;;;;96.47;46.77;;;;;;;29.63;nan;100321.22;5054743;28;20980;-45
2021/06/30 05:17:06;;;;;;;88.50;44.23;;;;;;;29.79;nan;100332.03;5052968;28;20513;-46
2021/06/30 05:19:39;;;;;;;89.43;46.07;;;;;;;29.86;nan;100330.81;5054727;28;20729;-44
2021/06/30 05:22:11;;;;;;;91.77;47.57;;;;;;;29.53;nan;100325.22;5053555;28;20512;-44
2021/06/30 05:24:44;;;;;;;97.70;46.10;;;;;;;29.64;nan;100328.25;5054651;28;20482;-43
2021/06/30 05:27:16;;;;;;;84.10;42.80;;;;;;;29.89;nan;100319.16;5052944;28;20559;-46
2021/06/30 05:29:50;;;;;;;83.50;43.47;;;;;;;30.05;nan;100319.31;5054764;28;20558;-43
2021/06/30 05:32:23;;;;;;;89.73;44.83;;;;;;;30.03;nan;100322.03;5053404;28;20514;-43
2021/06/30 05:34:55;;;;;;;91.23;43.40;;;;;;;29.98;nan;100318.72;5056368;28;20490;-45
2021/06/30 05:37:28;;;;;;;86.73;46.53;;;;;;;30.01;nan;100313.28;5056267;28;20514;-45
2021/06/30 05:40:00;;;;;;;86.40;44.37;;;;;;;30.12;nan;100310.13;5058424;28;20524;-44
2021/06/30 05:42:33;;;;;;;87.33;45.10;;;;;;;29.27;nan;100305.97;5057076;28;20590;-47
2021/06/30 05:45:07;;;;;;;83.00;45.17;;;;;;;29.90;nan;100311.09;5058219;28;20485;-45
2021/06/30 05:47:40;;;;;;;105.40;47.67;;;;;;;30.27;nan;100302.34;5056342;28;20484;-46
2021/06/30 05:50:13;;;;;;;88.73;48.43;;;;;;;30.50;nan;100303.03;5058127;28;20474;-43
2021/06/30 05:52:46;;;;;;;82.73;45.73;;;;;;;30.39;nan;100304.41;5056625;28;20487;-45
2021/06/30 05:55:19;;;;;;;81.77;46.43;;;;;;;30.18;nan;100295.66;5058112;28;20521;-43
2021/06/30 05:57:51;;;;;;;83.90;45.87;;;;;;;30.34;nan;100308.25;5056561;28;20825;-43
2021/06/30 06:00:25;;;;;;;80.40;43.50;;;;;;;30.57;nan;100305.31;5057778;28;20565;-44
2021/06/30 06:02:58;;;;;;;78.83;43.67;;;;;;;30.68;nan;100302.16;5056596;28;20590;-45
2021/06/30 06:05:30;;;;;;;85.27;46.70;;;;;;;30.67;nan;100310.19;5057224;28;20945;-44
2021/06/30 06:08:03;;;;;;;86.90;46.87;;;;;;;30.34;nan;100310.91;5056316;28;20853;-44
2021/06/30 06:10:36;;;;;;;84.83;44.57;;;;;;;30.50;nan;100309.19;5057574;28;20475;-44
2021/06/30 06:13:08;;;;;;;87.93;45.70;;;;;;;30.49;nan;100311.97;5056200;28;20511;-45
2021/06/30 06:15:42;;;;;;;88.57;45.73;;;;;;;30.45;nan;100303.28;5057377;28;20530;-46
2021/06/30 06:18:15;;;;;;;88.43;45.10;;;;;;;29.69;nan;100312.97;5056319;28;20482;-43
2021/06/30 06:20:47;;;;;;;85.73;44.63;;;;;;;29.24;nan;100305.19;5057673;28;20547;-43
2021/06/30 06:23:20;;;;;;;93.83;45.97;;;;;;;29.50;nan;100304.97;5055445;28;20566;-45
2021/06/30 06:25:52;;;;;;;82.27;44.53;;;;;;;29.70;nan;100313.81;5057151;28;20498;-46
2021/06/30 06:28:30;;;;;;;82.40;43.10;;;;;;;30.26;nan;100305.94;5055915;28;20562;-44
2021/06/30 06:31:05;;;;;;;85.50;42.90;;;;;;;30.12;nan;100309.25;5057286;28;20565;-43
2021/06/30 06:33:37;;;;;;;82.67;43.43;;;;;;;30.29;nan;100304.00;5055504;28;20835;-44
2021/06/30 06:36:11;;;;;;;79.40;42.73;;;;;;;29.96;nan;100301.13;5056776;28;20520;-43
2021/06/30 06:38:45;;;;;;;83.30;41.93;;;;;;;29.67;nan;100314.81;5056811;28;20936;-46
2021/06/30 06:41:17;;;;;;;76.40;42.73;;;;;;;29.84;nan;100318.50;5056079;28;20486;-44
2021/06/30 06:43:50;;;;;;;76.93;42.77;;;;;;;30.26;nan;100319.25;5056705;28;20567;-43
2021/06/30 06:46:24;;;;;;;74.70;42.73;;;;;;;29.53;nan;100317.25;5055823;28;20825;-43
2021/06/30 06:48:56;;;;;;;80.23;43.53;;;;;;;29.61;nan;100323.94;5057016;28;20516;-44
2021/06/30 06:51:29;;;;;;;80.40;42.50;;;;;;;29.92;nan;100314.56;5055837;28;20490;-44
2021/06/30 06:54:01;;;;;;;88.33;45.40;;;;;;;29.51;nan;100315.53;5056776;28;20479;-48
2021/06/30 06:56:34;;;;;;;85.47;44.17;;;;;;;29.61;nan;100323.94;5055248;28;20479;-43
2021/06/30 06:59:06;;;;;;;80.50;42.40;;;;;;;29.70;nan;100324.44;5057084;28;20563;-45
2021/06/30 07:01:40;;;;;;;70.97;41.50;;;;;;;30.03;nan;100321.16;5055492;28;20553;-44
2021/06/30 07:04:13;;;;;;;75.37;42.50;;;;;;;29.82;nan;100329.22;5056757;28;20451;-46
2021/06/30 07:06:45;;;;;;;74.43;42.47;;;;;;;29.50;nan;100328.88;5054843;28;20562;-43
2021/06/30 07:09:18;;;;;;;84.23;44.90;;;;;;;29.55;nan;100326.88;5056156;28;20509;-45
2021/06/30 07:11:50;;;;;;;77.43;42.50;;;;;;;29.40;nan;100323.06;5053214;28;21038;-45
2021/06/30 07:14:23;;;;;;;74.50;42.07;;;;;;;29.64;nan;100329.09;5056564;28;20571;-46
2021/06/30 07:16:56;;;;;;;77.07;41.77;;;;;;;29.13;nan;100322.50;5054785;28;20934;-43
2021/06/30 07:19:29;;;;;;;73.50;40.77;;;;;;;29.33;nan;100332.25;5056171;28;20881;-42
2021/06/30 07:22:01;;;;;;;79.73;43.77;;;;;;;28.81;nan;100329.06;5054979;28;20570;-45
2021/06/30 07:24:34;;;;;;;77.57;41.13;;;;;;;29.84;nan;100331.81;5056497;28;20486;-45
2021/06/30 07:27:07;;;;;;;77.57;39.80;;;;;;;29.40;nan;100332.81;5054770;28;20509;-42
2021/06/30 07:29:40;;;;;;;81.23;43.67;;;;;;;29.36;nan;100342.72;5055947;28;20514;-45
2021/06/30 07:32:14;;;;;;;142.23;82.10;;;;;;;29.20;nan;100337.22;5054646;28;20577;-43
2021/06/30 07:34:46;;;;;;;77.57;42.63;;;;;;;29.18;nan;100345.28;5056199;28;20560;-46
2021/06/30 07:37:19;;;;;;;77.97;40.93;;;;;;;29.10;nan;100337.63;5054135;28;20923;-44
2021/06/30 07:39:51;;;;;;;101.70;55.77;;;;;;;29.43;nan;100341.53;5055863;28;20854;-44
2021/06/30 07:42:21;;;;;;;71.47;42.13;;;;;;;29.08;nan;100343.94;5054484;28;20536;-44
2021/06/30 07:44:55;;;;;;;84.07;45.10;;;;;;;29.22;nan;100349.50;5055948;28;20934;-47
2021/06/30 07:47:23;;;;;;;74.57;41.90;;;;;;;29.31;nan;100345.59;5054080;28;20983;-45
2021/06/30 07:49:51;;;;;;;72.63;40.60;;;;;;;29.27;nan;100338.69;5055720;28;20776;-43
2021/06/30 07:52:19;;;;;;;68.90;41.20;;;;;;;29.59;nan;100340.88;5054401;28;20486;-44
2021/06/30 07:54:46;;;;;;;81.93;41.73;;;;;;;29.04;nan;100347.63;5055484;28;20489;-43
2021/06/30 07:57:14;;;;;;;69.77;40.77;;;;;;;29.10;nan;100342.94;5053803;28;20482;-45
2021/06/30 07:59:42;;;;;;;82.20;42.40;;;;;;;29.60;nan;100351.47;5055398;28;20938;-44
2021/06/30 08:02:09;;;;;;;74.87;42.23;;;;;;;29.64;nan;100337.09;5054437;28;20483;-46
2021/06/30 08:04:38;;;;;;;78.80;42.97;;;;;;;29.54;nan;100340.22;5055575;28;21228;-43
2021/06/30 08:07:06;;;;;;;75.20;43.53;;;;;;;29.57;nan;100340.09;5053810;28;20912;-47
2021/06/30 08:09:35;;;;;;;79.60;41.80;;;;;;;29.96;nan;100341.88;5055184;28;20479;-45
2021/06/30 08:12:05;;;;;;;79.20;41.57;;;;;;;29.51;nan;100342.09;5054252;28;20486;-44
2021/06/30 08:14:34;;;;;;;75.87;41.23;;;;;;;29.40;nan;100341.66;5055541;28;20482;-44
2021/06/30 08:17:01;;;;;;;98.93;53.13;;;;;;;29.33;nan;100340.22;5053675;28;20517;-44
2021/06/30 08:19:29;;;;;;;73.30;41.30;;;;;;;29.06;nan;100345.81;5055114;28;20490;-44
2021/06/30 08:21:58;;;;;;;96.10;52.83;;;;;;;29.13;nan;100344.59;5053758;28;20477;-45
2021/06/30 08:24:26;;;;;;;71.83;42.10;;;;;;;29.64;nan;100346.88;5055210;28;20458;-48
2021/06/30 08:26:55;;;;;;;69.90;40.30;;;;;;;29.99;nan;100344.38;5053693;28;20482;-43
2021/06/30 08:29:24;;;;;;;68.97;39.87;;;;;;;30.01;nan;100347.84;5054654;28;20839;-46
2021/06/30 08:31:56;;;;;;;74.73;43.13;;;;;;;29.87;nan;100347.59;5053856;28;20573;-45
2021/06/30 08:34:24;;;;;;;68.23;40.17;;;;;;;29.99;nan;100349.69;5055026;28;20533;-42
2021/06/30 08:36:55;;;;;;;67.90;39.93;;;;;;;29.82;nan;100353.13;5053604;28;20939;-42
2021/06/30 08:39:24;;;;;;;70.13;40.60;;;;;;;29.19;nan;100360.28;5055200;28;20544;-44
2021/06/30 08:41:52;;;;;;;75.47;38.97;;;;;;;29.21;nan;100361.06;5053666;28;20478;-44
2021/06/30 08:44:20;;;;;;;78.90;40.33;;;;;;;28.97;nan;100369.13;5054991;28;20512;-43
2021/06/30 08:46:49;;;;;;;80.17;42.40;;;;;;;29.19;nan;100365.59;5053347;28;20478;-45
2021/06/30 08:49:22;;;;;;;90.57;46.17;;;;;;;29.21;nan;100370.81;5054909;28;20478;-43
2021/06/30 08:51:51;;;;;;;79.40;42.80;;;;;;;28.53;nan;100362.03;5053800;28;20482;-43
2021/06/30 08:54:20;;;;;;;78.33;42.60;;;;;;;29.15;nan;100371.06;5054854;28;20752;-44
2021/06/30 08:56:49;;;;;;;86.33;44.67;;;;;;;29.07;nan;100360.78;5053305;28;20486;-44
2021/06/30 08:59:17;;;;;;;92.33;45.17;;;;;;;29.23;nan;100363.66;5054983;28;20824;-44
2021/06/30 09:01:45;;;;;;;80.80;42.97;;;;;;;28.97;nan;100358.50;5053028;28;20473;-43
2021/06/30 09:04:13;;;;;;;81.67;42.87;;;;;;;29.29;nan;100368.72;5055025;28;20461;-44
2021/06/30 09:06:41;;;;;;;84.83;43.43;;;;;;;29.48;nan;100363.47;5053324;28;20479;-43
2021/06/30 09:09:12;;;;;;;103.37;57.53;;;;;;;29.42;nan;100366.38;5055300;28;20482;-45
2021/06/30 09:11:40;;;;;;;79.00;40.83;;;;;;;29.57;nan;100369.34;5057088;28;20481;-44
2021/06/30 09:14:21;;;;;;;78.50;41.27;;;;;;;29.84;nan;100363.69;5058792;28;20493;-43
2021/06/30 09:17:10;;;;;;;72.00;42.77;;;;;;;29.51;nan;100363.34;5057214;28;20473;-45
2021/06/30 09:20:01;;;;;;;70.67;40.50;;;;;;;29.83;nan;100367.28;5058627;28;20489;-44
2021/06/30 09:22:30;;;;;;;73.60;41.13;;;;;;;29.45;nan;100357.41;5057257;28;20931;-46
2021/06/30 09:24:58;;;;;;;67.60;38.53;;;;;;;29.39;nan;100358.53;5058669;28;20503;-46
2021/06/30 09:27:40;;;;;;;65.23;38.10;;;;;;;29.84;nan;100363.69;5056891;28;20803;-43
2021/06/30 09:30:12;;;;;;;74.33;36.40;;;;;;;29.63;nan;100366.41;5058264;28;20931;-45
2021/06/30 09:32:55;;;;;;;56.30;34.70;;;;;;;29.33;nan;100366.78;5056935;28;20509;-43
2021/06/30 09:35:25;;;;;;;65.83;37.70;;;;;;;29.19;nan;100360.28;5055639;28;20488;-43
2021/06/30 09:37:53;;;;;;;57.20;34.53;;;;;;;29.60;nan;100367.41;5056786;28;20517;-42
2021/06/30 09:40:20;;;;;;;53.83;34.57;;;;;;;30.38;nan;100369.19;5058422;28;20478;-43
2021/06/30 09:42:48;;;;;;;49.20;31.57;;;;;;;29.98;nan;100371.91;5056832;28;20483;-42
2021/06/30 09:45:19;;;;;;;51.43;32.93;;;;;;;29.19;nan;100370.03;5058080;28;20892;-46
2021/06/30 09:47:49;;;;;;;49.60;31.10;;;;;;;29.69;nan;100375.88;5056504;28;20763;-42
2021/06/30 09:50:17;;;;;;;52.40;32.23;;;;;;;30.23;nan;100376.09;5058175;28;20475;-44
2021/06/30 09:52:46;;;;;;;55.00;33.50;;;;;;;30.48;nan;100379.38;5056775;28;20549;-44
2021/06/30 09:55:25;;;;;;;53.17;32.70;;;;;;;30.75;nan;100374.56;5057901;28;20485;-44
2021/06/30 09:57:52;;;;;;;52.43;32.70;;;;;;;31.05;nan;100378.41;5056252;28;20487;-46
2021/06/30 10:00:24;;;;;;;49.50;31.73;;;;;;;30.93;nan;100374.59;5057992;28;20479;-43
2021/06/30 10:02:54;;;;;;;45.93;29.70;;;;;;;30.84;nan;100371.47;5056547;28;20497;-43
2021/06/30 10:05:30;;;;;;;51.10;31.53;;;;;;;30.66;nan;100367.84;5057710;28;20451;-43
2021/06/30 10:08:14;;;;;;;48.10;31.03;;;;;;;30.31;nan;100368.63;5056212;28;20488;-43
2021/06/30 10:10:44;;;;;;;45.00;29.50;;;;;;;30.95;nan;100378.03;5057776;28;20479;-46
2021/06/30 10:13:11;;;;;;;68.17;42.67;;;;;;;31.28;nan;100371.09;5056313;28;20479;-46
2021/06/30 10:15:42;;;;;;;48.83;31.20;;;;;;;31.59;nan;100373.03;5057285;28;20511;-44
2021/06/30 10:18:10;;;;;;;52.50;32.17;;;;;;;31.51;nan;100369.91;5056321;28;20797;-47
2021/06/30 10:20:41;;;;;;;44.83;28.50;;;;;;;31.38;nan;100361.69;5056973;28;20775;-45
2021/06/30 10:23:08;;;;;;;41.10;28.73;;;;;;;31.17;nan;100367.16;5056005;28;20556;-45
2021/06/30 10:25:37;;;;;;;41.07;27.73;;;;;;;30.65;nan;100366.13;5056428;28;20452;-45
2021/06/30 10:28:05;;;;;;;40.50;26.90;;;;;;;30.63;nan;100368.03;5055918;28;20920;-45
2021/06/30 10:30:33;;;;;;;49.20;32.80;;;;;;;30.51;nan;100369.50;5057216;28;20483;-45
2021/06/30 10:33:03;;;;;;;37.73;25.37;;;;;;;31.03;nan;100364.34;5055905;28;20483;-45
2021/06/30 10:35:33;;;;;;;43.20;26.10;;;;;;;31.14;nan;100367.31;5056589;28;20483;-48
2021/06/30 10:38:01;;;;;;;40.07;24.90;;;;;;;31.15;nan;100362.88;5056068;28;21500;-45
2021/06/30 10:40:31;;;;;;;44.27;27.77;;;;;;;31.11;nan;100356.81;5057269;28;20475;-48
2021/06/30 10:43:12;;;;;;;37.03;25.43;;;;;;;30.98;nan;100359.25;5055778;28;20484;-46
2021/06/30 10:45:41;;;;;;;62.77;39.67;;;;;;;31.12;nan;100348.75;5056550;28;20455;-47
2021/06/30 10:48:12;;;;;;;35.27;24.67;;;;;;;31.03;nan;100346.56;5055734;28;20497;-45
2021/06/30 10:50:42;;;;;;;37.80;24.40;;;;;;;30.95;nan;100341.63;5056938;28;20529;-43
2021/06/30 10:53:34;;;;;;;44.07;25.50;;;;;;;30.87;nan;100338.50;5055623;28;20483;-48
2021/06/30 10:56:09;;;;;;;36.40;22.47;;;;;;;31.02;nan;100342.19;5056463;28;20483;-43
2021/06/30 10:58:38;;;;;;;32.70;22.20;;;;;;;30.83;nan;100337.78;5055105;28;20991;-45
2021/06/30 11:01:13;;;;;;;33.73;23.80;;;;;;;30.47;nan;100335.97;5056667;28;20478;-46
2021/06/30 11:03:49;;;;;;;35.47;21.50;;;;;;;30.69;nan;100329.63;5055998;28;20811;-49
2021/06/30 11:06:28;;;;;;;30.10;19.83;;;;;;;30.55;nan;100328.47;5055168;28;20451;-46
2021/06/30 11:08:58;;;;;;;26.70;19.40;;;;;;;30.46;nan;100318.28;5056533;28;20466;-46
2021/06/30 11:12:03;;;;;;;32.70;20.13;;;;;;;30.58;nan;100322.13;5055277;28;20452;-46
2021/06/30 11:14:43;;;;;;;36.83;20.83;;;;;;;30.59;nan;100314.09;5056572;28;20466;-43
2021/06/30 11:17:11;;;;;;;31.23;19.70;;;;;;;30.82;nan;100314.75;5054565;28;20494;-48
2021/06/30 11:19:44;;;;;;;26.50;19.07;;;;;;;30.85;nan;100322.59;5056406;28;20555;-45
2021/06/30 11:22:25;;;;;;;25.93;17.17;;;;;;;30.64;nan;100310.31;5055084;28;20484;-43
2021/06/30 11:24:54;;;;;;;30.90;18.20;;;;;;;30.70;nan;100315.38;5056345;28;20459;-44
2021/06/30 11:27:44;;;;;;;26.47;16.50;;;;;;;30.50;nan;100319.00;5054536;28;20495;-44
2021/06/30 11:30:14;;;;;;;29.50;18.27;;;;;;;30.81;nan;100318.34;5055975;28;20941;-45
2021/06/30 11:32:45;;;;;;;25.30;16.10;;;;;;;30.89;nan;100317.09;5053896;28;20920;-43
2021/06/30 11:35:26;;;;;;;25.43;16.13;;;;;;;31.22;nan;100311.00;5055885;28;20464;-44
2021/06/30 11:38:10;;;;;;;26.90;16.00;;;;;;;30.50;nan;100308.34;5054552;28;20481;-45
2021/06/30 11:40:40;;;;;;;28.30;17.27;;;;;;;31.12;nan;100306.13;5056046;28;20490;-44
2021/06/30 11:43:13;;;;;;;22.23;16.07;;;;;;;30.94;nan;100307.06;5054792;28;20474;-43
2021/06/30 11:45:42;;;;;;;27.70;16.90;;;;;;;31.43;nan;100327.69;5055580;28;20483;-42
2021/06/30 11:48:10;;;;;;;24.60;16.33;;;;;;;31.85;nan;100335.28;5054538;28;20486;-44